createdAt,value
2023-01-26T00:00:40.584Z,9.63
2023-01-26T00:03:27.831Z,10.07
2023-01-26T00:06:16.870Z,8.73
2023-01-26T00:09:04.249Z,9.67
2023-01-26T00:11:51.207Z,8.97
2023-01-26T00:14:50.053Z,9.70
2023-01-26T00:17:38.257Z,8.83
2023-01-26T00:20:25.501Z,8.90
2023-01-26T00:23:12.463Z,9.50
2023-01-26T00:25:59.910Z,10.10
2023-01-26T00:28:47.386Z,9.40
2023-01-26T00:31:34.424Z,9.27
2023-01-26T00:34:22.204Z,10.10
2023-01-26T00:37:09.119Z,8.83
2023-01-26T00:39:56.049Z,10.67
2023-01-26T00:42:44.217Z,11.03
2023-01-26T00:45:31.181Z,11.03
2023-01-26T00:48:18.104Z,10.10
2023-01-26T00:51:05.291Z,11.53
2023-01-26T00:53:52.226Z,12.77
2023-01-26T00:56:39.354Z,9.60
2023-01-26T00:59:26.452Z,11.53
2023-01-26T01:02:13.492Z,10.50
2023-01-26T01:05:00.475Z,11.13
2023-01-26T01:07:47.408Z,9.93
2023-01-26T01:10:34.326Z,9.40
2023-01-26T01:13:21.256Z,10.00
2023-01-26T01:16:10.362Z,10.77
2023-01-26T01:18:57.462Z,10.53
2023-01-26T01:21:45.456Z,9.97
2023-01-26T01:24:34.379Z,9.27
2023-01-26T01:27:21.306Z,10.37
2023-01-26T01:30:10.556Z,10.53
2023-01-26T01:32:57.716Z,11.07
2023-01-26T01:35:44.818Z,12.47
2023-01-26T01:38:31.858Z,9.93
2023-01-26T01:41:22.675Z,9.90
2023-01-26T01:44:21.440Z,10.70
2023-01-26T01:47:21.308Z,10.23
2023-01-26T01:50:16.393Z,9.47
2023-01-26T01:53:04.151Z,9.10
2023-01-26T01:55:56.028Z,9.10
2023-01-26T01:58:43.483Z,9.60
2023-01-26T02:01:30.511Z,9.87
2023-01-26T02:04:21.432Z,10.70
2023-01-26T02:07:11.406Z,10.93
2023-01-26T02:10:18.436Z,9.60
2023-01-26T02:13:06.344Z,10.07
2023-01-26T02:15:54.479Z,10.33
2023-01-26T02:18:41.846Z,9.33
2023-01-26T02:21:29.119Z,8.40
2023-01-26T02:24:25.204Z,9.83
2023-01-26T02:27:12.376Z,9.30
2023-01-26T02:30:01.161Z,9.00
2023-01-26T02:32:48.375Z,9.23
2023-01-26T02:35:35.336Z,10.10
2023-01-26T02:38:25.195Z,9.33
2023-01-26T02:41:38.192Z,8.87
2023-01-26T02:44:25.940Z,9.83
2023-01-26T02:47:15.321Z,9.20
2023-01-26T02:50:02.361Z,9.63
2023-01-26T02:52:50.428Z,9.97
2023-01-26T02:55:40.656Z,9.67
2023-01-26T02:58:28.885Z,10.67
2023-01-26T03:01:15.999Z,10.83
2023-01-26T03:04:07.312Z,9.40
2023-01-26T03:06:54.288Z,11.17
2023-01-26T03:09:41.210Z,10.00
2023-01-26T03:12:29.185Z,9.70
2023-01-26T03:15:42.743Z,12.43
2023-01-26T03:18:49.433Z,11.17
2023-01-26T03:21:59.908Z,9.87
2023-01-26T03:25:05.345Z,9.60
2023-01-26T03:27:52.337Z,10.37
2023-01-26T03:30:39.588Z,11.50
2023-01-26T03:33:27.108Z,9.57
2023-01-26T03:36:15.274Z,11.00
2023-01-26T03:39:02.267Z,10.43
2023-01-26T03:42:08.228Z,11.33
2023-01-26T03:45:14.083Z,11.23
2023-01-26T03:48:29.275Z,10.00
2023-01-26T03:51:35.313Z,10.70
2023-01-26T03:54:40.952Z,12.43
2023-01-26T03:57:29.829Z,10.13
2023-01-26T04:00:17.110Z,10.27
2023-01-26T04:03:24.044Z,10.67
2023-01-26T04:06:29.914Z,9.10
2023-01-26T04:09:17.071Z,9.63
2023-01-26T04:12:04.723Z,10.33
2023-01-26T04:15:13.153Z,8.97
2023-01-26T04:18:24.594Z,10.87
2023-01-26T04:21:27.844Z,10.20
2023-01-26T04:24:17.256Z,9.50
2023-01-26T04:27:05.206Z,9.73
2023-01-26T04:29:56.614Z,9.43
2023-01-26T04:32:46.054Z,11.10
2023-01-26T04:35:33.734Z,9.53
2023-01-26T04:38:20.848Z,11.07
2023-01-26T04:41:08.042Z,10.63
2023-01-26T04:44:02.167Z,9.50
2023-01-26T04:46:50.028Z,10.57
2023-01-26T04:49:38.211Z,10.17
2023-01-26T04:52:25.336Z,11.77
2023-01-26T04:55:12.324Z,9.93
2023-01-26T04:58:03.656Z,10.17
2023-01-26T05:00:57.122Z,8.53
2023-01-26T05:03:45.771Z,9.37
2023-01-26T05:06:33.490Z,11.23
2023-01-26T05:09:20.567Z,9.27
2023-01-26T05:12:32.143Z,8.90
2023-01-26T05:15:38.560Z,12.10
2023-01-26T05:18:32.087Z,12.33
2023-01-26T05:21:36.984Z,9.17
2023-01-26T05:24:24.087Z,10.60
2023-01-26T05:27:22.989Z,11.77
2023-01-26T05:30:14.847Z,8.93
2023-01-26T05:33:07.983Z,11.60
2023-01-26T05:35:55.190Z,9.10
2023-01-26T05:38:42.200Z,10.97
2023-01-26T05:41:29.852Z,9.70
2023-01-26T05:44:40.044Z,10.40
2023-01-26T05:47:32.323Z,11.90
2023-01-26T05:50:19.552Z,10.27
2023-01-26T05:53:26.522Z,11.00
2023-01-26T05:56:14.195Z,10.30
2023-01-26T05:59:05.920Z,11.47
2023-01-26T06:01:53.485Z,9.87
2023-01-26T06:04:40.548Z,11.17
2023-01-26T06:07:28.102Z,12.00
2023-01-26T06:10:26.707Z,10.67
2023-01-26T06:13:25.485Z,11.30
2023-01-26T06:16:20.749Z,11.30
2023-01-26T06:19:10.444Z,9.73
2023-01-26T06:21:58.390Z,10.77
2023-01-26T06:24:46.271Z,10.80
2023-01-26T06:27:34.204Z,8.60
2023-01-26T06:30:23.733Z,9.67
2023-01-26T06:33:10.746Z,10.20
2023-01-26T06:36:03.159Z,9.90
2023-01-26T06:38:51.508Z,9.77
2023-01-26T06:41:39.635Z,9.33
2023-01-26T06:44:27.060Z,10.17
2023-01-26T06:47:14.924Z,10.93
2023-01-26T06:50:02.813Z,9.90
2023-01-26T06:52:55.410Z,12.67
2023-01-26T06:56:02.921Z,10.77
2023-01-26T06:58:56.101Z,10.87
2023-01-26T07:02:01.693Z,11.00
2023-01-26T07:04:50.250Z,10.23
2023-01-26T07:07:37.314Z,11.23
2023-01-26T07:10:24.370Z,11.83
2023-01-26T07:13:11.390Z,11.90
2023-01-26T07:16:11.132Z,11.57
2023-01-26T07:18:58.071Z,9.17
2023-01-26T07:21:45.107Z,9.70
2023-01-26T07:24:32.091Z,9.23
2023-01-26T07:27:19.054Z,10.40
2023-01-26T07:30:07.157Z,10.70
2023-01-26T07:32:54.139Z,9.37
2023-01-26T07:35:41.503Z,11.33
2023-01-26T07:38:29.119Z,11.17
2023-01-26T07:41:16.107Z,11.20
2023-01-26T07:44:04.754Z,10.10
2023-01-26T07:46:53.617Z,10.40
2023-01-26T07:49:41.411Z,11.80
2023-01-26T07:52:28.406Z,11.40
2023-01-26T07:55:16.224Z,9.10
2023-01-26T07:58:03.147Z,9.63
2023-01-26T08:00:50.102Z,9.27
2023-01-26T08:03:37.187Z,8.77
2023-01-26T08:06:24.912Z,8.87
2023-01-26T08:09:11.978Z,9.53
2023-01-26T08:11:59.310Z,10.40
2023-01-26T08:14:47.404Z,9.70
2023-01-26T08:17:34.657Z,10.60
2023-01-26T08:20:22.076Z,8.37
2023-01-26T08:23:09.095Z,9.07
2023-01-26T08:26:00.937Z,7.90
2023-01-26T08:28:48.451Z,8.90
2023-01-26T08:31:35.421Z,11.90
2023-01-26T08:34:22.633Z,17.97
2023-01-26T08:37:09.601Z,14.90
2023-01-26T08:39:56.594Z,11.70
2023-01-26T08:42:43.512Z,9.10
2023-01-26T08:45:33.661Z,8.70
2023-01-26T08:48:20.976Z,8.87
2023-01-26T08:51:08.627Z,11.03
2023-01-26T08:53:55.888Z,10.27
2023-01-26T08:56:42.854Z,11.43
2023-01-26T08:59:29.802Z,10.77
2023-01-26T09:02:16.929Z,11.00
2023-01-26T09:05:04.094Z,9.50
2023-01-26T09:07:51.011Z,10.13
2023-01-26T09:10:38.904Z,9.27
2023-01-26T09:13:25.972Z,8.57
2023-01-26T09:16:19.885Z,9.77
2023-01-26T09:19:06.850Z,9.87
2023-01-26T09:21:54.532Z,10.57
2023-01-26T09:24:41.505Z,9.97
2023-01-26T09:27:28.503Z,9.27
2023-01-26T09:30:16.052Z,9.50
2023-01-26T09:33:05.748Z,8.47
2023-01-26T09:35:52.821Z,10.63
2023-01-26T09:38:40.250Z,9.13
2023-01-26T09:41:43.154Z,8.63
2023-01-26T09:44:35.541Z,9.57
2023-01-26T09:47:45.084Z,8.50
2023-01-26T09:50:42.976Z,8.70
2023-01-26T09:53:55.063Z,7.73
2023-01-26T09:56:42.802Z,7.77
2023-01-26T09:59:55.208Z,8.03
2023-01-26T10:03:04.542Z,7.30
2023-01-26T10:05:53.583Z,7.67
2023-01-26T10:09:02.799Z,6.83
2023-01-26T10:11:56.355Z,7.43
2023-01-26T10:14:51.444Z,7.47
2023-01-26T10:17:44.066Z,8.53
2023-01-26T10:20:36.837Z,6.73
2023-01-26T10:23:32.407Z,7.10
2023-01-26T10:26:22.772Z,6.97
2023-01-26T10:29:15.605Z,8.83
2023-01-26T10:32:03.796Z,7.63
2023-01-26T10:34:51.370Z,7.73
2023-01-26T10:37:38.400Z,7.93
2023-01-26T10:40:26.054Z,8.93
2023-01-26T10:43:18.950Z,7.43
2023-01-26T10:46:05.953Z,7.53
2023-01-26T10:48:56.188Z,8.47
2023-01-26T10:51:45.928Z,8.40
2023-01-26T10:54:36.935Z,8.23
2023-01-26T10:57:28.232Z,7.83
2023-01-26T11:00:26.130Z,7.63
2023-01-26T11:03:18.488Z,8.70
2023-01-26T11:06:16.581Z,6.83
2023-01-26T11:09:15.433Z,6.93
2023-01-26T11:12:05.733Z,6.27
2023-01-26T11:15:15.221Z,6.67
2023-01-26T11:18:10.491Z,5.70
2023-01-26T11:21:03.413Z,5.70
2023-01-26T11:24:03.684Z,7.93
2023-01-26T11:27:15.523Z,6.40
2023-01-26T11:30:23.687Z,6.03
2023-01-26T11:33:37.771Z,6.40
2023-01-26T11:36:48.892Z,6.10
2023-01-26T11:39:54.200Z,5.83
2023-01-26T11:42:56.446Z,6.13
2023-01-26T11:46:14.549Z,6.57
2023-01-26T11:49:43.196Z,6.57
2023-01-26T11:52:49.059Z,6.70
2023-01-26T11:55:46.607Z,6.40
2023-01-26T11:58:43.200Z,6.63
2023-01-26T12:01:41.398Z,6.70
2023-01-26T12:04:33.165Z,7.13
2023-01-26T12:07:30.052Z,6.83
2023-01-26T12:10:21.008Z,12.13
2023-01-26T12:13:43.664Z,7.87
2023-01-26T12:16:43.370Z,6.73
2023-01-26T12:19:45.595Z,6.13
2023-01-26T12:22:38.653Z,5.67
2023-01-26T12:25:37.374Z,5.37
2023-01-26T12:28:32.850Z,5.20
2023-01-26T12:31:19.828Z,5.70
2023-01-26T12:34:12.539Z,4.97
2023-01-26T12:37:09.186Z,4.40
2023-01-26T12:40:04.053Z,4.30
2023-01-26T12:43:15.603Z,4.40
2023-01-26T12:46:05.641Z,4.60
2023-01-26T12:49:13.642Z,5.03
2023-01-26T12:52:07.971Z,4.93
2023-01-26T12:55:03.285Z,4.63
2023-01-26T12:58:01.007Z,4.97
2023-01-26T13:00:53.621Z,4.43
2023-01-26T13:03:51.749Z,4.40
2023-01-26T13:06:39.079Z,4.77
2023-01-26T13:09:26.696Z,4.20
2023-01-26T13:12:53.908Z,4.97
2023-01-26T13:15:40.990Z,5.30
2023-01-26T13:18:49.503Z,5.40
2023-01-26T13:21:39.376Z,5.07
2023-01-26T13:24:26.317Z,5.00
2023-01-26T13:27:59.076Z,4.90
2023-01-26T13:30:46.249Z,4.60
2023-01-26T13:33:33.399Z,5.50
2023-01-26T13:36:23.251Z,5.70
2023-01-26T13:39:17.015Z,5.97
2023-01-26T13:42:16.468Z,5.03
2023-01-26T13:45:13.331Z,6.50
2023-01-26T13:48:04.935Z,6.20
2023-01-26T13:50:51.983Z,8.60
2023-01-26T13:54:09.037Z,7.83
2023-01-26T13:57:04.851Z,7.50
2023-01-26T13:59:54.746Z,7.10
2023-01-26T14:02:49.756Z,5.73
2023-01-26T14:05:36.852Z,6.20
2023-01-26T14:08:24.920Z,5.87
2023-01-26T14:11:19.940Z,6.37
2023-01-26T14:14:17.558Z,5.60
2023-01-26T14:17:25.023Z,5.07
2023-01-26T14:20:28.377Z,5.20
2023-01-26T14:23:20.846Z,5.07
2023-01-26T14:26:15.476Z,4.77
2023-01-26T14:29:03.496Z,4.70
2023-01-26T14:31:53.129Z,5.63
2023-01-26T14:34:55.228Z,4.93
2023-01-26T14:37:42.373Z,5.17
2023-01-26T14:40:29.573Z,5.10
2023-01-26T14:43:17.540Z,4.80
2023-01-26T14:46:13.729Z,4.97
2023-01-26T14:49:13.036Z,5.73
2023-01-26T14:52:00.162Z,6.03
2023-01-26T14:54:48.246Z,4.90
2023-01-26T14:57:35.336Z,5.30
2023-01-26T15:00:25.340Z,4.83
2023-01-26T15:03:22.115Z,4.80
2023-01-26T15:06:21.240Z,4.10
2023-01-26T15:09:25.518Z,4.80
2023-01-26T15:12:17.056Z,4.40
2023-01-26T15:15:13.057Z,4.27
2023-01-26T15:18:03.355Z,4.37
2023-01-26T15:21:10.603Z,5.00
2023-01-26T15:23:57.741Z,4.83
2023-01-26T15:26:44.885Z,4.80
2023-01-26T15:29:33.519Z,4.57
2023-01-26T15:32:33.233Z,4.60
2023-01-26T15:35:27.649Z,4.53
2023-01-26T15:38:15.020Z,5.17
2023-01-26T15:41:02.130Z,4.60
2023-01-26T15:43:49.161Z,4.70
2023-01-26T15:46:36.272Z,5.17
2023-01-26T15:49:23.451Z,5.30
2023-01-26T15:52:16.277Z,5.27
2023-01-26T15:55:18.713Z,4.97
2023-01-26T15:58:05.641Z,5.50
2023-01-26T16:00:53.533Z,5.07
2023-01-26T16:03:40.584Z,5.53
2023-01-26T16:06:30.563Z,4.27
2023-01-26T16:09:17.519Z,4.53
2023-01-26T16:12:04.901Z,5.40
2023-01-26T16:14:51.875Z,4.70
2023-01-26T16:17:38.965Z,5.10
2023-01-26T16:20:25.920Z,6.43
2023-01-26T16:23:21.919Z,6.77
2023-01-26T16:26:12.029Z,5.10
2023-01-26T16:28:58.983Z,4.57
2023-01-26T16:31:46.000Z,5.07
2023-01-26T16:34:32.970Z,4.37
2023-01-26T16:37:19.915Z,5.07
2023-01-26T16:40:08.348Z,4.67
2023-01-26T16:42:55.298Z,4.87
2023-01-26T16:45:42.377Z,4.63
2023-01-26T16:48:34.447Z,4.87
2023-01-26T16:51:24.541Z,5.43
2023-01-26T16:54:12.063Z,4.23
2023-01-26T16:56:59.074Z,4.83
2023-01-26T16:59:46.011Z,5.10
2023-01-26T17:02:35.777Z,5.77
2023-01-26T17:05:22.730Z,5.60
2023-01-26T17:08:09.738Z,5.50
2023-01-26T17:11:02.435Z,5.33
2023-01-26T17:13:50.312Z,6.93
2023-01-26T17:16:37.373Z,6.27
2023-01-26T17:19:24.285Z,5.03
2023-01-26T17:22:11.411Z,5.47
2023-01-26T17:24:58.339Z,8.20
2023-01-26T17:27:48.071Z,6.20
2023-01-26T17:30:35.109Z,5.57
2023-01-26T17:33:22.075Z,5.90
2023-01-26T17:36:09.868Z,5.20
2023-01-26T17:38:56.759Z,5.00
2023-01-26T17:41:43.659Z,5.00
2023-01-26T17:44:30.577Z,4.70
2023-01-26T17:47:17.514Z,5.30
2023-01-26T17:50:05.309Z,4.57
2023-01-26T17:52:52.206Z,5.17
2023-01-26T17:55:39.116Z,6.07
2023-01-26T17:58:26.195Z,17.83
2023-01-26T18:01:14.499Z,24.07
2023-01-26T18:04:02.480Z,12.30
2023-01-26T18:06:49.445Z,11.97
2023-01-26T18:09:36.344Z,37.43
2023-01-26T18:12:23.298Z,81.03
2023-01-26T18:15:11.073Z,135.13
2023-01-26T18:17:58.165Z,169.20
2023-01-26T18:20:45.104Z,139.73
2023-01-26T18:23:32.054Z,101.73
2023-01-26T18:26:22.003Z,111.53
2023-01-26T18:29:10.652Z,79.47
2023-01-26T18:31:57.596Z,200.43
2023-01-26T18:34:44.568Z,150.43
2023-01-26T18:37:33.532Z,104.03
2023-01-26T18:40:20.506Z,89.93
2023-01-26T18:43:09.741Z,130.40
2023-01-26T18:45:56.737Z,82.10
2023-01-26T18:48:43.723Z,64.90
2023-01-26T18:51:35.744Z,18.43
2023-01-26T18:54:22.781Z,20.70
2023-01-26T18:57:09.683Z,59.47
2023-01-26T18:59:56.640Z,87.47
2023-01-26T19:02:43.551Z,79.87
2023-01-26T19:05:31.244Z,55.97
2023-01-26T19:08:22.477Z,57.47
2023-01-26T19:11:09.561Z,36.60
2023-01-26T19:13:56.968Z,17.93
2023-01-26T19:16:47.520Z,26.53
2023-01-26T19:19:34.497Z,52.40
2023-01-26T19:22:21.617Z,36.67
2023-01-26T19:25:08.684Z,59.33
2023-01-26T19:27:55.592Z,57.27
2023-01-26T19:30:43.531Z,58.67
2023-01-26T19:33:31.701Z,53.83
2023-01-26T19:36:19.239Z,22.77
2023-01-26T19:39:07.030Z,11.17
2023-01-26T19:41:54.067Z,9.90
2023-01-26T19:44:41.031Z,7.33
2023-01-26T19:47:27.991Z,6.07
2023-01-26T19:50:15.217Z,5.33
2023-01-26T19:53:02.157Z,5.60
2023-01-26T19:55:49.102Z,6.43
2023-01-26T19:58:36.584Z,5.23
2023-01-26T20:01:24.884Z,6.00
2023-01-26T20:04:14.730Z,5.43
2023-01-26T20:07:05.117Z,6.00
2023-01-26T20:09:52.031Z,6.13
2023-01-26T20:12:38.979Z,6.13
2023-01-26T20:15:25.878Z,5.83
2023-01-26T20:18:12.798Z,6.23
2023-01-26T20:21:01.044Z,5.90
2023-01-26T20:23:54.855Z,5.83
2023-01-26T20:26:44.382Z,5.83
2023-01-26T20:29:32.003Z,5.93
2023-01-26T20:32:18.999Z,6.10
2023-01-26T20:35:08.617Z,6.20
2023-01-26T20:37:56.078Z,7.63
2023-01-26T20:40:43.044Z,8.07
2023-01-26T20:43:29.983Z,7.40
2023-01-26T20:46:18.352Z,6.90
2023-01-26T20:49:08.471Z,6.30
2023-01-26T20:51:55.452Z,6.63
2023-01-26T20:54:42.369Z,6.57
2023-01-26T20:57:29.874Z,6.23
2023-01-26T21:00:17.166Z,7.63
2023-01-26T21:03:04.150Z,7.70
2023-01-26T21:05:51.064Z,6.20
2023-01-26T21:08:38.564Z,7.03
2023-01-26T21:11:28.332Z,8.10
2023-01-26T21:14:15.350Z,7.30
2023-01-26T21:17:02.298Z,7.53
2023-01-26T21:19:49.882Z,7.03
2023-01-26T21:22:36.920Z,6.70
2023-01-26T21:25:23.884Z,7.93
2023-01-26T21:28:10.915Z,7.93
2023-01-26T21:31:09.058Z,7.17
2023-01-26T21:33:56.972Z,7.10
2023-01-26T21:36:43.954Z,7.00
2023-01-26T21:39:30.888Z,6.80
2023-01-26T21:42:17.818Z,6.43
2023-01-26T21:45:24.070Z,7.03
2023-01-26T21:48:29.667Z,6.60
2023-01-26T21:51:52.020Z,7.47
2023-01-26T21:54:39.464Z,7.40
2023-01-26T21:57:46.675Z,8.23
2023-01-26T22:00:33.618Z,6.30
2023-01-26T22:03:20.549Z,7.50
2023-01-26T22:06:07.909Z,7.50
2023-01-26T22:08:55.194Z,7.10
2023-01-26T22:11:43.002Z,7.83
2023-01-26T22:14:30.188Z,7.83
2023-01-26T22:17:17.276Z,8.07
2023-01-26T22:20:05.237Z,7.77
2023-01-26T22:22:52.181Z,8.20
2023-01-26T22:25:40.061Z,9.07
2023-01-26T22:28:27.017Z,8.37
2023-01-26T22:31:14.725Z,10.30
2023-01-26T22:34:02.336Z,13.33
2023-01-26T22:36:49.299Z,13.47
2023-01-26T22:39:36.241Z,16.87
2023-01-26T22:42:23.222Z,11.30
2023-01-26T22:45:10.599Z,12.63
2023-01-26T22:47:57.631Z,12.30
2023-01-26T22:50:44.817Z,11.40
2023-01-26T22:53:31.733Z,7.77
2023-01-26T22:56:19.021Z,7.30
2023-01-26T22:59:05.959Z,14.93
2023-01-26T23:01:52.919Z,21.17
2023-01-26T23:04:39.938Z,16.60
2023-01-26T23:07:26.905Z,10.00
2023-01-26T23:10:14.227Z,10.83
2023-01-26T23:13:01.404Z,16.10
2023-01-26T23:15:48.391Z,29.60
2023-01-26T23:18:35.678Z,99.57
2023-01-26T23:21:23.617Z,93.07
2023-01-26T23:24:10.566Z,48.43
2023-01-26T23:26:57.496Z,121.77
2023-01-26T23:29:44.421Z,79.93
2023-01-26T23:32:31.386Z,91.77
2023-01-26T23:35:18.556Z,66.23
2023-01-26T23:38:05.518Z,31.17
2023-01-26T23:40:52.771Z,20.07
2023-01-26T23:43:40.352Z,15.37
2023-01-26T23:46:27.452Z,11.33
2023-01-26T23:49:14.460Z,11.43
2023-01-26T23:52:01.399Z,8.87
2023-01-26T23:54:48.374Z,8.57
2023-01-26T23:57:36.240Z,9.10
